Date,TemperatureHighF,TemperatureAvgF,TemperatureLowF,DewpointHighF,DewpointAvgF,DewpointLowF,HumidityHigh,HumidityAvg,HumidityLow,PressureMaxIn,PressureMinIn,WindSpeedMaxMPH,WindSpeedAvgMPH,GustSpeedMaxMPH,PrecipitationSumIn
2013-1-1,30.7,20.5,5.9,15.5,10.7,0.2,84,66,49,30.11,30.01,3,0,5,0.00
2013-1-2,17.4,14.9,4.1,9.7,8.0,-2.1,78,74,68,30.07,30.00,0,0,2,0.03
2013-1-3,29.8,21.2,-2.0,14.5,9.2,-8.8,80,60,46,29.93,29.83,3,0,7,0.00
2013-1-4,38.5,31.6,13.5,23.8,18.7,7.2,79,59,46,29.98,29.83,5,3,8,0.00
2013-1-5,34.3,28.0,23.4,24.1,20.3,15.7,83,73,56,29.90,29.80,3,0,5,0.00
2013-1-6,38.8,37.2,26.1,27.6,25.7,21.3,83,63,59,29.83,29.75,5,1,9,0.00
2013-1-7,45.1,40.4,36.1,35.2,32.1,29.1,89,73,58,29.81,29.67,5,3,10,0.11
2013-1-8,47.5,43.3,39.2,36.5,33.6,31.1,80,69,59,29.84,29.72,8,4,16,0.00
2013-1-9,47.3,35.9,24.3,34.1,25.4,17.8,78,66,56,29.81,29.44,6,3,13,0.00
2013-1-10,34.9,28.0,19.8,23.4,22.2,15.2,82,79,61,29.62,29.52,3,0,3,0.00
2013-1-11,31.8,25.5,14.0,23.4,12.4,9.2,82,58,47,29.76,29.59,4,1,6,0.00
2013-1-12,25.5,20.2,8.1,11.4,5.7,1.8,78,53,46,29.86,29.81,5,0,7,0.00
2013-1-13,26.4,22.8,5.4,9.6,6.1,-2.3,71,49,43,29.95,29.89,4,0,9,0.00
2013-1-14,39.4,35.7,18.0,17.3,13.7,2.2,52,40,36,29.99,29.91,5,2,12,0.00
2013-1-15,41.5,39.4,21.0,21.4,20.7,12.8,71,47,44,30.19,30.15,2,1,5,0.00
2013-1-16,51.3,45.7,26.1,23.1,20.9,14.4,62,38,30,30.20,30.12,5,2,9,0.00
2013-1-17,49.2,43.1,23.7,22.4,20.5,11.0,63,41,31,30.11,30.01,5,2,8,0.00
2013-1-18,43.5,42.1,21.4,21.2,20.0,11.9,68,41,39,30.01,29.97,2,1,5,0.00
2013-1-19,52.2,36.9,21.2,23.9,18.5,10.6,68,49,30,30.04,29.95,3,1,5,0.00
2013-1-20,45.9,40.9,17.1,20.4,17.2,10.0,76,40,32,30.05,29.98,2,1,6,0.00
2013-1-21,49.1,36.6,21.2,18.8,14.1,9.0,64,41,23,29.98,29.83,5,1,9,0.00
2013-1-22,49.8,36.0,20.1,20.9,17.4,8.1,71,48,31,29.81,29.70,4,1,7,0.00
2013-1-23,52.3,46.5,33.6,33.7,29.2,18.1,59,52,35,29.70,29.54,4,2,10,0.14
2013-1-24,48.9,46.4,32.0,38.4,34.6,30.2,98,65,56,29.82,29.75,5,3,13,0.00
2013-1-25,47.1,43.6,41.0,39.9,36.9,35.4,90,77,69,29.76,29.63,5,2,9,0.00
2013-1-26,45.5,35.3,28.4,36.3,22.6,18.6,77,60,40,29.66,29.56,5,1,9,0.00
2013-1-27,37.9,35.7,26.8,24.6,20.2,18.0,77,53,48,29.72,29.64,3,0,6,0.00
2013-1-28,37.2,35.6,26.8,24.3,23.3,20.8,78,61,57,29.75,29.65,2,1,6,0.00
2013-1-29,41.4,41.0,36.5,27.3,27.1,23.5,62,57,57,29.90,29.69,2,2,5,0.00
2013-1-30,50.4,42.3,34.2,34.2,31.1,27.3,86,65,53,30.06,29.90,4,1,8,0.00
2013-1-31,34.5,30.8,26.8,30.4,27.4,24.8,92,87,82,30.03,29.94,2,0,6,0.00
2013-2-1,47.8,35.7,25.2,31.6,26.0,20.9,93,70,43,30.03,29.93,2,0,5,0.00
2013-2-2,47.3,39.7,22.5,40.5,36.8,20.5,95,89,46,30.02,29.95,2,1,4,0.00
2013-2-3,55.9,46.6,26.6,40.5,25.1,20.1,89,45,30,30.00,29.81,4,1,7,0.00
2013-2-4,54.0,49.2,32.7,26.2,24.5,20.6,65,39,33,29.83,29.72,4,0,8,0.00
2013-2-5,52.7,39.6,32.0,30.9,24.6,14.3,83,57,33,29.72,29.57,6,3,19,0.14
2013-2-6,48.9,39.9,30.9,25.5,21.8,17.9,75,49,33,29.75,29.57,5,2,12,0.00
2013-2-7,46.2,34.5,27.3,27.3,20.7,17.0,84,58,40,29.68,29.56,3,0,5,0.00
2013-2-8,37.6,32.8,20.3,23.2,18.0,14.8,83,56,41,29.78,29.72,3,1,10,0.00
2013-2-9,43.0,37.7,18.5,26.7,23.5,13.4,80,57,41,29.80,29.74,3,0,6,0.00
2013-2-10,42.6,34.0,22.1,28.9,20.2,15.3,94,59,39,29.91,29.76,4,0,8,0.00
2013-2-11,50.2,34.5,24.1,29.1,22.6,17.2,83,64,36,29.95,29.82,5,2,13,0.00
2013-2-12,50.7,39.4,28.4,31.8,26.8,20.7,92,63,40,30.05,29.95,3,1,8,0.00
2013-2-13,50.5,40.9,28.9,34.5,28.5,23.3,86,62,41,30.06,30.00,3,0,6,0.77
2013-2-14,50.2,41.4,26.4,44.0,33.3,25.4,98,75,51,30.14,30.02,3,0,6,0.00
2013-2-15,55.2,40.2,24.4,40.0,31.2,22.9,97,74,43,30.12,29.93,2,0,5,0.00
2013-2-16,54.9,41.2,19.4,30.8,22.4,13.9,83,49,33,29.85,29.79,6,2,15,0.00
2013-2-17,41.9,32.2,18.5,24.3,16.7,12.6,86,56,31,29.82,29.69,2,0,5,0.00
2013-2-18,44.2,31.8,22.6,22.2,18.0,13.3,77,58,32,29.69,29.41,3,0,7,0.00
2013-2-19,42.6,32.5,22.3,22.8,19.5,14.6,78,60,33,29.59,29.32,3,0,7,0.00
2013-2-20,45.0,34.6,21.6,23.3,19.1,15.5,79,55,36,29.67,29.38,2,1,7,0.00
2013-2-21,42.1,34.2,20.8,26.4,22.2,17.3,90,63,40,29.78,29.63,4,2,45,0.00
2013-2-22,33.8,33.8,33.3,24.2,24.0,23.5,68,67,67,29.75,29.73,6,5,13,0.00
2013-2-23,40.5,32.7,21.6,36.1,23.8,14.9,89,70,51,29.96,29.73,6,2,13,0.83
2013-2-24,45.0,35.2,18.3,35.7,22.6,14.6,89,61,43,29.97,29.73,5,1,9,0.00
2013-2-25,41.7,38.0,30.9,24.3,20.2,17.4,75,49,41,29.89,29.71,6,4,12,0.00
2013-2-26,48.4,41.3,22.3,19.8,16.6,13.3,79,38,26,29.95,29.80,5,2,12,0.00
2013-2-27,44.4,34.5,32.7,15.8,14.6,14.3,48,44,31,29.87,29.85,3,2,7,0.00
2013-2-28,56.1,49.3,39.6,39.8,37.2,33.5,82,63,52,30.12,29.90,6,3,13,0.00
2013-3-1,53.6,44.1,40.8,36.7,32.7,27.5,78,66,37,30.12,29.97,5,1,9,0.00
2013-3-2,60.4,44.1,39.9,31.7,31.3,28.8,69,61,30,30.04,29.87,3,0,4,0.00
2013-3-3,41.4,33.4,16.9,24.2,11.9,5.4,76,43,24,29.87,29.80,1,0,7,0.00
2013-3-4,36.3,15.8,15.6,18.0,10.1,8.5,78,78,47,29.87,29.61,0,0,0,0.00
2013-3-5,27.9,24.9,24.8,18.6,14.8,14.7,74,65,61,29.81,29.60,0,0,0,0.00
2013-3-6,46.2,38.4,30.9,39.9,30.9,27.1,98,75,47,29.46,29.19,5,0,12,0.06
2013-3-7,45.5,36.8,20.3,35.9,23.0,15.4,86,60,37,29.67,29.36,5,1,9,0.00
2013-3-8,26.2,24.4,24.3,22.9,20.5,20.4,87,85,84,29.65,29.63,0,0,0,0.00
2013-3-9,24.3,23.2,22.8,20.4,18.6,18.1,85,82,81,29.91,29.63,3,2,5,0.00
2013-3-10,59.2,53.5,27.9,25.9,21.8,19.2,75,31,23,30.08,30.01,4,1,7,0.00
2013-3-11,59.5,55.9,35.2,39.8,37.7,21.4,91,52,23,30.01,29.97,2,1,6,1.02
2013-3-12,61.5,56.9,36.1,39.3,35.9,32.9,90,48,37,29.94,29.83,3,0,8,0.00
2013-3-13,67.5,55.4,42.1,36.6,28.9,23.0,67,37,28,29.90,29.84,4,1,9,0.00
2013-3-14,66.7,60.6,39.9,33.5,29.9,24.2,64,32,26,29.88,29.77,74,4,74,0.00
2013-3-15,66.2,50.7,34.7,38.2,30.5,25.2,78,48,25,29.89,29.77,5,1,10,0.00
2013-3-16,56.3,37.0,36.7,32.3,29.3,29.3,78,74,40,29.88,29.75,4,1,8,0.00
2013-3-17,36.9,27.4,26.1,29.3,19.3,17.8,76,71,70,29.75,29.73,4,2,6,0.00
2013-3-18,50.7,41.2,23.2,25.7,13.8,-1.0,81,38,12,29.84,29.73,3,1,8,0.00
2013-3-19,28.4,28.4,27.5,17.1,17.0,16.2,63,62,61,29.79,29.77,0,0,0,0.00
2013-3-20,50.4,46.5,42.8,42.7,33.5,29.6,85,61,49,29.47,29.32,8,5,17,0.06
2013-3-21,44.1,25.9,24.1,38.6,15.7,11.6,81,65,41,29.84,29.39,5,2,9,0.00
2013-3-22,40.5,35.7,23.5,21.7,13.8,10.3,77,42,31,29.86,29.81,6,4,18,0.00
2013-3-23,39.6,35.6,21.4,20.1,18.1,13.3,76,50,35,29.92,29.85,5,1,7,0.00
2013-3-24,45.3,25.2,22.1,18.3,17.8,15.7,76,74,33,29.85,29.84,0,0,2,0.39
2013-3-25,44.2,41.4,25.4,27.1,25.9,18.3,74,54,50,29.85,29.59,3,1,6,0.39
2013-3-26,53.4,46.7,36.1,36.1,34.0,31.2,84,62,49,29.66,29.62,40,1,40,0.00
2013-3-27,59.5,54.2,32.7,39.4,35.5,32.5,99,52,40,29.63,29.60,5,3,10,0.00
2013-3-28,59.2,40.2,39.7,43.3,38.7,34.9,99,94,40,29.83,29.61,4,0,4,0.00
2013-3-29,64.4,51.2,37.0,51.8,40.7,34.9,99,71,40,29.93,29.73,2,1,7,0.00
2013-3-30,62.1,55.4,34.2,43.9,41.3,33.9,99,61,43,29.93,29.87,2,1,6,0.00
2013-3-31,63.1,53.3,33.1,42.0,38.0,32.1,96,58,37,29.89,29.66,4,1,8,0.00
2013-4-1,63.7,57.9,41.4,43.8,39.6,37.5,89,52,39,29.77,29.72,4,2,9,0.00
2013-4-2,61.7,38.5,34.5,39.0,36.9,33.5,97,94,43,29.87,29.76,2,1,5,0.00
2013-4-3,68.4,57.4,34.5,40.0,32.0,25.8,99,43,21,29.85,29.66,4,1,8,0.00
2013-4-4,50.5,46.4,46.0,35.1,34.1,33.5,65,62,59,29.83,29.58,2,0,3,0.00
2013-4-5,61.9,47.4,39.7,37.3,34.7,33.4,79,61,40,29.68,29.51,6,2,9,0.00
2013-4-6,42.6,41.9,39.2,36.8,36.7,34.8,86,82,78,29.59,29.37,7,3,13,0.00
2013-4-7,52.5,43.5,37.9,36.8,32.9,31.4,82,66,49,29.67,29.37,6,5,15,0.03
2013-4-8,46.4,43.7,25.0,27.1,22.9,17.9,82,44,40,29.91,29.67,6,3,17,0.00
2013-4-9,25.3,25.2,25.0,21.5,21.3,20.3,85,85,82,29.91,29.89,1,1,5,0.00
2013-4-10,58.1,56.1,32.7,42.9,41.2,18.2,79,58,22,29.94,29.82,7,4,13,0.00
2013-4-11,53.8,45.8,25.2,31.6,24.7,20.4,88,45,31,29.90,29.81,3,0,7,0.00
2013-4-12,59.4,53.4,28.4,32.9,26.4,20.4,80,38,27,29.82,29.64,2,2,5,0.00
2013-4-13,48.9,40.8,27.7,23.1,18.9,14.8,59,42,28,29.70,29.53,7,3,16,0.00
2013-4-14,34.2,34.0,30.7,19.9,19.6,18.1,59,55,55,29.63,29.62,2,1,4,0.00
2013-4-15,46.0,35.0,29.5,39.2,31.8,20.5,96,88,36,29.75,29.53,6,2,12,0.08
2013-4-16,44.2,37.8,29.7,38.7,29.7,21.8,99,74,43,29.99,29.60,6,2,10,0.08
2013-4-17,49.5,44.7,22.8,29.9,19.3,13.9,89,38,27,30.06,30.01,3,1,9,0.00
2013-4-18,60.8,54.1,30.6,35.8,32.7,16.3,78,45,30,30.06,30.00,4,1,10,0.00
2013-4-19,58.5,55.0,44.4,40.2,36.5,34.3,74,51,44,29.86,29.83,8,5,17,0.00
2013-4-20,56.5,54.8,34.9,34.8,32.6,31.5,91,44,40,29.93,29.90,2,1,8,0.00
2013-4-21,62.1,59.3,34.9,34.1,33.1,26.0,86,38,30,29.88,29.86,3,2,9,0.00
2013-4-22,49.6,47.1,36.3,32.6,23.7,21.6,80,41,34,30.06,29.98,4,1,9,0.00
2013-4-23,51.1,24.4,20.7,22.1,11.1,4.1,69,61,16,30.04,29.78,2,0,7,0.00
2013-4-24,65.1,57.2,28.0,26.2,15.0,8.7,58,22,11,30.10,29.68,1,0,5,1.10
2013-4-25,45.9,38.8,37.6,21.7,19.5,19.3,51,45,36,30.06,29.75,4,4,7,0.00
2013-4-26,67.8,63.0,39.9,41.0,36.8,32.3,80,40,31,29.93,29.86,3,1,6,0.00
2013-4-27,75.4,67.5,39.6,39.3,25.5,16.8,59,23,13,29.95,29.78,6,4,14,0.00
2013-4-28,69.8,38.3,36.5,25.8,23.7,18.4,60,57,14,29.88,29.81,5,0,5,0.00
2013-4-29,62.1,49.6,32.4,40.6,26.7,18.7,75,43,30,29.87,29.67,7,4,17,0.00
2013-4-30,49.6,41.4,22.5,21.6,18.3,14.4,75,41,28,30.03,29.73,5,2,13,0.00
2013-5-1,60.4,51.0,23.9,27.4,16.7,8.1,83,28,13,30.19,30.07,4,1,10,0.11
2013-5-2,50.7,30.2,29.1,25.3,18.9,18.5,66,63,30,30.17,29.94,2,0,4,0.00
2013-5-3,65.7,38.6,35.4,26.3,24.4,11.6,63,57,12,30.09,29.85,3,0,3,0.00
2013-5-4,35.4,33.7,33.6,25.2,24.2,23.4,69,68,63,29.85,29.84,0,0,1,0.00
2013-5-5,55.9,53.2,33.6,32.2,30.0,24.2,68,42,38,29.84,29.60,3,1,6,0.00
2013-5-6,77.7,68.1,49.8,43.2,34.1,27.8,59,30,19,29.62,29.53,3,1,10,0.00
2013-5-7,65.7,63.7,47.7,48.4,43.8,42.2,90,50,43,29.71,29.62,3,0,8,0.00
2013-5-8,79.9,68.4,55.4,52.5,41.1,26.9,90,41,17,29.91,29.61,7,2,7,0.00
2013-5-9,81.7,81.3,81.0,41.4,39.7,38.5,24,23,22,29.91,29.90,2,2,4,0.00
2013-5-10,83.1,64.6,53.1,49.5,42.9,33.7,82,51,19,29.96,29.86,3,1,7,0.00
2013-5-11,82.6,58.4,56.9,50.2,49.6,38.7,78,74,21,29.93,29.90,1,0,4,0.00
2013-5-12,57.6,57.6,57.6,50.0,50.0,50.0,76,76,76,29.91,29.91,0,0,0,0.00
2013-5-13,69.6,57.6,43.3,44.6,33.5,30.1,66,41,31,29.87,29.76,9,3,18,0.00
2013-5-16,43.3,43.3,43.3,32.7,32.7,32.7,66,66,66,29.87,29.87,0,0,0,0.00
2013-7-1,43.3,43.3,43.3,32.7,32.7,32.7,66,66,66,29.87,29.87,0,0,0,0.00
2013-7-2,83.8,45.2,43.3,51.7,33.6,32.7,66,64,31,29.87,29.84,0,0,1,0.00
2013-7-20,90.7,64.7,50.5,48.7,29.4,-2.0,77,35,5,29.73,29.68,2,0,7,0.00
2013-7-21,89.8,88.3,80.4,39.4,11.7,7.2,23,6,5,29.69,29.66,2,0,5,0.00
2013-7-23,89.4,82.4,67.3,41.8,18.2,9.6,38,13,5,29.81,29.66,2,0,4,0.00
2013-7-25,66.9,66.9,66.9,40.5,40.5,40.5,38,38,38,29.81,29.81,0,0,0,0.00
2013-8-24,74.5,59.4,52.0,62.9,52.6,49.7,95,80,46,29.69,29.63,2,0,5,0.11
2013-8-25,64.9,58.0,49.6,63.2,50.7,47.5,98,78,59,29.73,29.61,7,1,14,0.41
2013-9-29,49.8,49.8,49.8,48.4,48.4,48.4,95,95,95,29.72,29.72,0,0,0,0.41
2013-9-30,54.3,47.8,36.9,48.4,35.5,30.1,99,63,49,29.74,29.33,9,4,21,0.03